sensor_id;sensor_type;location;lat;lon;timestamp;temperature;humidity
8662;DHT22;29684;47.722;9.388;2023-04-25T00:02:19;9.10;99.90
8662;DHT22;29684;47.722;9.388;2023-04-25T00:05:04;9.10;99.90
8662;DHT22;29684;47.722;9.388;2023-04-25T00:07:49;9.10;99.90
8662;DHT22;29684;47.722;9.388;2023-04-25T00:10:34;9.10;99.90
8662;DHT22;29684;47.722;9.388;2023-04-25T00:13:19;8.30;99.90
8662;DHT22;29684;47.722;9.388;2023-04-25T00:16:03;9.00;99.90
8662;DHT22;29684;47.722;9.388;2023-04-25T00:18:48;9.00;99.90
8662;DHT22;29684;47.722;9.388;2023-04-25T00:21:35;9.00;99.90
8662;DHT22;29684;47.722;9.388;2023-04-25T00:24:22;9.00;99.90
8662;DHT22;29684;47.722;9.388;2023-04-25T00:27:06;9.10;99.90
8662;DHT22;29684;47.722;9.388;2023-04-25T00:29:50;9.00;99.90
8662;DHT22;29684;47.722;9.388;2023-04-25T00:32:34;9.00;99.90
8662;DHT22;29684;47.722;9.388;2023-04-25T00:35:18;8.90;99.90
8662;DHT22;29684;47.722;9.388;2023-04-25T00:38:03;8.80;99.90
8662;DHT22;29684;47.722;9.388;2023-04-25T00:40:48;8.80;99.90
8662;DHT22;29684;47.722;9.388;2023-04-25T00:43:32;8.70;99.90
8662;DHT22;29684;47.722;9.388;2023-04-25T00:46:17;8.70;99.90
8662;DHT22;29684;47.722;9.388;2023-04-25T00:49:01;8.70;99.90
8662;DHT22;29684;47.722;9.388;2023-04-25T00:51:45;8.70;99.90
8662;DHT22;29684;47.722;9.388;2023-04-25T00:54:29;8.60;99.90
8662;DHT22;29684;47.722;9.388;2023-04-25T00:57:14;8.60;99.90
8662;DHT22;29684;47.722;9.388;2023-04-25T00:59:59;8.60;99.90
8662;DHT22;29684;47.722;9.388;2023-04-25T01:02:44;8.50;99.90
8662;DHT22;29684;47.722;9.388;2023-04-25T01:05:29;8.40;99.90
8662;DHT22;29684;47.722;9.388;2023-04-25T01:08:14;8.40;99.90
8662;DHT22;29684;47.722;9.388;2023-04-25T01:10:59;8.30;99.90
8662;DHT22;29684;47.722;9.388;2023-04-25T01:13:43;8.30;99.90
8662;DHT22;29684;47.722;9.388;2023-04-25T01:16:28;8.20;99.90
8662;DHT22;29684;47.722;9.388;2023-04-25T01:19:16;8.20;99.90
8662;DHT22;29684;47.722;9.388;2023-04-25T01:22:00;8.20;99.90
8662;DHT22;29684;47.722;9.388;2023-04-25T01:24:45;8.20;99.90
8662;DHT22;29684;47.722;9.388;2023-04-25T01:27:30;8.10;99.90
8662;DHT22;29684;47.722;9.388;2023-04-25T01:30:14;8.00;99.90
8662;DHT22;29684;47.722;9.388;2023-04-25T01:32:59;8.10;99.90
8662;DHT22;29684;47.722;9.388;2023-04-25T01:35:44;8.20;99.90
8662;DHT22;29684;47.722;9.388;2023-04-25T01:38:28;8.20;99.90
8662;DHT22;29684;47.722;9.388;2023-04-25T01:41:14;8.20;99.90
8662;DHT22;29684;47.722;9.388;2023-04-25T01:43:59;8.20;99.90
8662;DHT22;29684;47.722;9.388;2023-04-25T01:46:43;8.20;99.90
8662;DHT22;29684;47.722;9.388;2023-04-25T01:49:27;7.90;99.90
8662;DHT22;29684;47.722;9.388;2023-04-25T01:52:11;7.50;99.90
8662;DHT22;29684;47.722;9.388;2023-04-25T01:54:57;7.40;99.90
8662;DHT22;29684;47.722;9.388;2023-04-25T01:57:41;7.30;99.90
8662;DHT22;29684;47.722;9.388;2023-04-25T02:00:26;7.30;99.90
8662;DHT22;29684;47.722;9.388;2023-04-25T02:03:10;7.20;99.90
8662;DHT22;29684;47.722;9.388;2023-04-25T02:05:54;7.20;99.90
8662;DHT22;29684;47.722;9.388;2023-04-25T02:08:38;7.00;99.90
8662;DHT22;29684;47.722;9.388;2023-04-25T02:11:22;6.80;99.90
8662;DHT22;29684;47.722;9.388;2023-04-25T02:14:06;6.80;99.90
8662;DHT22;29684;47.722;9.388;2023-04-25T02:16:50;7.00;99.90
8662;DHT22;29684;47.722;9.388;2023-04-25T02:19:35;6.90;99.90
8662;DHT22;29684;47.722;9.388;2023-04-25T02:22:20;6.80;99.90
8662;DHT22;29684;47.722;9.388;2023-04-25T02:25:04;6.70;99.90
8662;DHT22;29684;47.722;9.388;2023-04-25T02:27:48;6.70;99.90
8662;DHT22;29684;47.722;9.388;2023-04-25T02:30:33;6.70;99.90
8662;DHT22;29684;47.722;9.388;2023-04-25T02:33:18;6.80;99.90
8662;DHT22;29684;47.722;9.388;2023-04-25T02:36:02;6.70;99.90
8662;DHT22;29684;47.722;9.388;2023-04-25T02:38:46;6.60;99.90
8662;DHT22;29684;47.722;9.388;2023-04-25T02:41:30;6.50;99.90
8662;DHT22;29684;47.722;9.388;2023-04-25T02:44:15;6.40;99.90
8662;DHT22;29684;47.722;9.388;2023-04-25T02:46:59;6.60;99.90
8662;DHT22;29684;47.722;9.388;2023-04-25T02:49:44;6.50;99.90
8662;DHT22;29684;47.722;9.388;2023-04-25T02:52:29;6.30;99.90
8662;DHT22;29684;47.722;9.388;2023-04-25T02:55:14;6.20;99.90
8662;DHT22;29684;47.722;9.388;2023-04-25T02:57:58;6.10;99.90
8662;DHT22;29684;47.722;9.388;2023-04-25T03:00:43;6.10;99.90
8662;DHT22;29684;47.722;9.388;2023-04-25T03:03:27;6.30;99.90
8662;DHT22;29684;47.722;9.388;2023-04-25T03:06:11;6.30;99.90
8662;DHT22;29684;47.722;9.388;2023-04-25T03:08:55;6.20;99.90
8662;DHT22;29684;47.722;9.388;2023-04-25T03:11:39;6.20;99.90
8662;DHT22;29684;47.722;9.388;2023-04-25T03:14:24;6.20;99.90
8662;DHT22;29684;47.722;9.388;2023-04-25T03:17:08;6.10;99.90
8662;DHT22;29684;47.722;9.388;2023-04-25T03:19:52;6.10;99.90
8662;DHT22;29684;47.722;9.388;2023-04-25T03:22:36;6.20;99.90
8662;DHT22;29684;47.722;9.388;2023-04-25T03:25:20;6.10;99.90
8662;DHT22;29684;47.722;9.388;2023-04-25T03:28:04;6.10;99.90
8662;DHT22;29684;47.722;9.388;2023-04-25T03:30:49;6.10;99.90
8662;DHT22;29684;47.722;9.388;2023-04-25T03:33:33;6.10;99.90
8662;DHT22;29684;47.722;9.388;2023-04-25T03:36:17;6.00;99.90
8662;DHT22;29684;47.722;9.388;2023-04-25T03:39:01;6.00;99.90
8662;DHT22;29684;47.722;9.388;2023-04-25T03:41:46;6.10;99.90
8662;DHT22;29684;47.722;9.388;2023-04-25T03:44:30;6.20;99.90
8662;DHT22;29684;47.722;9.388;2023-04-25T03:47:14;6.10;99.90
8662;DHT22;29684;47.722;9.388;2023-04-25T03:49:59;6.20;99.90
8662;DHT22;29684;47.722;9.388;2023-04-25T03:52:45;6.20;99.90
8662;DHT22;29684;47.722;9.388;2023-04-25T03:55:29;6.20;99.90
8662;DHT22;29684;47.722;9.388;2023-04-25T03:58:13;6.10;99.90
8662;DHT22;29684;47.722;9.388;2023-04-25T04:00:57;6.00;99.90
8662;DHT22;29684;47.722;9.388;2023-04-25T04:03:41;6.10;99.90
8662;DHT22;29684;47.722;9.388;2023-04-25T04:06:25;6.10;99.90
8662;DHT22;29684;47.722;9.388;2023-04-25T04:09:10;6.00;99.90
8662;DHT22;29684;47.722;9.388;2023-04-25T04:11:56;5.90;99.90
8662;DHT22;29684;47.722;9.388;2023-04-25T04:14:41;5.80;99.90
8662;DHT22;29684;47.722;9.388;2023-04-25T04:17:25;5.80;99.90
8662;DHT22;29684;47.722;9.388;2023-04-25T04:20:10;5.80;99.90
8662;DHT22;29684;47.722;9.388;2023-04-25T04:22:55;5.80;99.90
8662;DHT22;29684;47.722;9.388;2023-04-25T04:25:39;5.80;99.90
8662;DHT22;29684;47.722;9.388;2023-04-25T04:28:23;5.80;99.90
8662;DHT22;29684;47.722;9.388;2023-04-25T04:31:09;5.80;99.90
8662;DHT22;29684;47.722;9.388;2023-04-25T04:33:54;5.70;99.90
8662;DHT22;29684;47.722;9.388;2023-04-25T04:36:38;5.70;99.90
8662;DHT22;29684;47.722;9.388;2023-04-25T04:39:23;5.80;99.90
8662;DHT22;29684;47.722;9.388;2023-04-25T04:42:07;5.80;99.90
8662;DHT22;29684;47.722;9.388;2023-04-25T04:44:52;5.80;99.90
8662;DHT22;29684;47.722;9.388;2023-04-25T04:47:38;5.80;99.90
8662;DHT22;29684;47.722;9.388;2023-04-25T04:50:23;5.90;99.90
8662;DHT22;29684;47.722;9.388;2023-04-25T04:53:07;6.00;99.90
8662;DHT22;29684;47.722;9.388;2023-04-25T04:55:51;6.10;99.90
8662;DHT22;29684;47.722;9.388;2023-04-25T04:58:36;6.20;99.90
8662;DHT22;29684;47.722;9.388;2023-04-25T05:01:20;6.30;99.90
8662;DHT22;29684;47.722;9.388;2023-04-25T05:04:05;6.40;99.90
8662;DHT22;29684;47.722;9.388;2023-04-25T05:06:49;6.30;99.90
8662;DHT22;29684;47.722;9.388;2023-04-25T05:09:34;6.40;99.90
8662;DHT22;29684;47.722;9.388;2023-04-25T05:12:18;6.50;99.90
8662;DHT22;29684;47.722;9.388;2023-04-25T05:15:02;6.60;99.90
8662;DHT22;29684;47.722;9.388;2023-04-25T05:17:47;6.70;99.90
8662;DHT22;29684;47.722;9.388;2023-04-25T05:20:31;6.70;99.90
8662;DHT22;29684;47.722;9.388;2023-04-25T05:23:15;6.90;99.90
8662;DHT22;29684;47.722;9.388;2023-04-25T05:26:00;6.90;99.90
8662;DHT22;29684;47.722;9.388;2023-04-25T05:28:44;7.00;99.90
8662;DHT22;29684;47.722;9.388;2023-04-25T05:31:28;7.20;99.90
8662;DHT22;29684;47.722;9.388;2023-04-25T05:34:12;7.30;99.90
8662;DHT22;29684;47.722;9.388;2023-04-25T05:36:56;7.40;99.90
8662;DHT22;29684;47.722;9.388;2023-04-25T05:39:40;7.40;99.90
8662;DHT22;29684;47.722;9.388;2023-04-25T05:42:24;7.40;99.90
8662;DHT22;29684;47.722;9.388;2023-04-25T05:45:09;7.70;99.90
8662;DHT22;29684;47.722;9.388;2023-04-25T05:47:53;7.80;99.90
8662;DHT22;29684;47.722;9.388;2023-04-25T05:50:37;8.00;99.90
8662;DHT22;29684;47.722;9.388;2023-04-25T05:53:21;8.00;99.90
8662;DHT22;29684;47.722;9.388;2023-04-25T05:56:05;8.20;99.90
8662;DHT22;29684;47.722;9.388;2023-04-25T05:58:49;8.30;99.90
8662;DHT22;29684;47.722;9.388;2023-04-25T06:01:34;8.60;99.90
8662;DHT22;29684;47.722;9.388;2023-04-25T06:04:19;8.70;99.90
8662;DHT22;29684;47.722;9.388;2023-04-25T06:07:03;8.80;99.90
8662;DHT22;29684;47.722;9.388;2023-04-25T06:09:48;8.90;99.90
8662;DHT22;29684;47.722;9.388;2023-04-25T06:12:33;9.10;99.90
8662;DHT22;29684;47.722;9.388;2023-04-25T06:15:17;9.10;99.90
8662;DHT22;29684;47.722;9.388;2023-04-25T06:18:02;9.20;99.90
8662;DHT22;29684;47.722;9.388;2023-04-25T06:20:46;9.10;99.90
8662;DHT22;29684;47.722;9.388;2023-04-25T06:23:30;9.20;99.90
8662;DHT22;29684;47.722;9.388;2023-04-25T06:26:14;9.20;99.90
8662;DHT22;29684;47.722;9.388;2023-04-25T06:28:58;9.00;99.90
8662;DHT22;29684;47.722;9.388;2023-04-25T06:31:43;9.20;99.90
8662;DHT22;29684;47.722;9.388;2023-04-25T06:34:27;9.40;99.90
8662;DHT22;29684;47.722;9.388;2023-04-25T06:37:11;9.60;99.90
8662;DHT22;29684;47.722;9.388;2023-04-25T06:39:56;9.70;99.90
8662;DHT22;29684;47.722;9.388;2023-04-25T06:42:40;9.80;99.90
8662;DHT22;29684;47.722;9.388;2023-04-25T06:45:24;9.90;99.90
8662;DHT22;29684;47.722;9.388;2023-04-25T06:48:08;10.00;99.90
8662;DHT22;29684;47.722;9.388;2023-04-25T06:50:52;10.00;99.90
8662;DHT22;29684;47.722;9.388;2023-04-25T06:53:36;10.20;99.90
8662;DHT22;29684;47.722;9.388;2023-04-25T06:56:20;10.50;99.90
8662;DHT22;29684;47.722;9.388;2023-04-25T06:59:05;10.60;99.90
8662;DHT22;29684;47.722;9.388;2023-04-25T07:01:49;10.70;99.90
8662;DHT22;29684;47.722;9.388;2023-04-25T07:04:34;10.90;99.90
8662;DHT22;29684;47.722;9.388;2023-04-25T07:07:18;10.70;99.90
8662;DHT22;29684;47.722;9.388;2023-04-25T07:10:03;10.60;99.90
8662;DHT22;29684;47.722;9.388;2023-04-25T07:12:47;10.70;99.90
8662;DHT22;29684;47.722;9.388;2023-04-25T07:15:31;10.90;99.90
8662;DHT22;29684;47.722;9.388;2023-04-25T07:18:15;10.90;99.90
8662;DHT22;29684;47.722;9.388;2023-04-25T07:20:59;10.60;99.90
8662;DHT22;29684;47.722;9.388;2023-04-25T07:23:44;10.30;99.90
8662;DHT22;29684;47.722;9.388;2023-04-25T07:26:28;10.20;99.90
8662;DHT22;29684;47.722;9.388;2023-04-25T07:29:12;10.20;99.90
8662;DHT22;29684;47.722;9.388;2023-04-25T07:31:57;10.20;99.90
8662;DHT22;29684;47.722;9.388;2023-04-25T07:34:42;9.90;99.90
8662;DHT22;29684;47.722;9.388;2023-04-25T07:37:26;9.70;99.90
8662;DHT22;29684;47.722;9.388;2023-04-25T07:40:10;9.80;99.90
8662;DHT22;29684;47.722;9.388;2023-04-25T07:42:55;9.80;99.90
8662;DHT22;29684;47.722;9.388;2023-04-25T07:45:39;9.70;99.90
8662;DHT22;29684;47.722;9.388;2023-04-25T07:48:23;9.70;99.90
8662;DHT22;29684;47.722;9.388;2023-04-25T07:51:07;9.50;99.90
8662;DHT22;29684;47.722;9.388;2023-04-25T07:53:51;9.10;99.90
8662;DHT22;29684;47.722;9.388;2023-04-25T07:56:36;8.40;99.90
8662;DHT22;29684;47.722;9.388;2023-04-25T07:59:20;7.60;99.90
8662;DHT22;29684;47.722;9.388;2023-04-25T08:02:05;7.10;99.90
8662;DHT22;29684;47.722;9.388;2023-04-25T08:04:49;6.80;99.90
8662;DHT22;29684;47.722;9.388;2023-04-25T08:07:34;6.60;99.90
8662;DHT22;29684;47.722;9.388;2023-04-25T08:10:19;6.50;99.90
8662;DHT22;29684;47.722;9.388;2023-04-25T08:13:03;6.30;99.90
8662;DHT22;29684;47.722;9.388;2023-04-25T08:15:47;6.40;99.90
8662;DHT22;29684;47.722;9.388;2023-04-25T08:18:31;6.20;99.90
8662;DHT22;29684;47.722;9.388;2023-04-25T08:21:15;6.00;99.90
8662;DHT22;29684;47.722;9.388;2023-04-25T08:24:00;6.00;99.90
8662;DHT22;29684;47.722;9.388;2023-04-25T08:26:44;6.00;99.90
8662;DHT22;29684;47.722;9.388;2023-04-25T08:29:28;6.10;99.90
8662;DHT22;29684;47.722;9.388;2023-04-25T08:32:12;6.10;99.90
8662;DHT22;29684;47.722;9.388;2023-04-25T08:34:56;6.00;99.90
8662;DHT22;29684;47.722;9.388;2023-04-25T08:37:40;5.90;99.90
8662;DHT22;29684;47.722;9.388;2023-04-25T08:40:27;5.90;99.90
8662;DHT22;29684;47.722;9.388;2023-04-25T08:43:14;6.10;99.90
8662;DHT22;29684;47.722;9.388;2023-04-25T08:46:00;6.30;99.90
8662;DHT22;29684;47.722;9.388;2023-04-25T08:48:45;6.20;99.90
8662;DHT22;29684;47.722;9.388;2023-04-25T08:51:32;6.20;99.90
8662;DHT22;29684;47.722;9.388;2023-04-25T08:54:17;6.20;99.90
8662;DHT22;29684;47.722;9.388;2023-04-25T08:57:03;6.20;99.90
8662;DHT22;29684;47.722;9.388;2023-04-25T08:59:48;6.10;99.90
8662;DHT22;29684;47.722;9.388;2023-04-25T09:02:33;6.20;99.90
8662;DHT22;29684;47.722;9.388;2023-04-25T09:05:17;6.30;99.90
8662;DHT22;29684;47.722;9.388;2023-04-25T09:08:02;6.10;99.90
8662;DHT22;29684;47.722;9.388;2023-04-25T09:10:46;6.00;99.90
8662;DHT22;29684;47.722;9.388;2023-04-25T09:13:30;6.00;99.90
8662;DHT22;29684;47.722;9.388;2023-04-25T09:16:15;6.00;99.90
8662;DHT22;29684;47.722;9.388;2023-04-25T09:19:01;5.90;99.90
8662;DHT22;29684;47.722;9.388;2023-04-25T09:21:49;5.90;99.90
8662;DHT22;29684;47.722;9.388;2023-04-25T09:24:43;5.90;99.90
8662;DHT22;29684;47.722;9.388;2023-04-25T09:27:29;5.90;99.90
8662;DHT22;29684;47.722;9.388;2023-04-25T09:30:15;6.00;99.90
8662;DHT22;29684;47.722;9.388;2023-04-25T09:33:08;6.20;99.90
8662;DHT22;29684;47.722;9.388;2023-04-25T09:35:52;6.20;99.90
8662;DHT22;29684;47.722;9.388;2023-04-25T09:38:41;6.20;99.90
8662;DHT22;29684;47.722;9.388;2023-04-25T09:41:26;6.30;99.90
8662;DHT22;29684;47.722;9.388;2023-04-25T09:44:13;6.50;99.90
8662;DHT22;29684;47.722;9.388;2023-04-25T09:46:57;6.60;99.90
8662;DHT22;29684;47.722;9.388;2023-04-25T09:49:42;6.90;99.90
8662;DHT22;29684;47.722;9.388;2023-04-25T09:52:26;7.10;99.90
8662;DHT22;29684;47.722;9.388;2023-04-25T09:55:11;7.20;99.90
8662;DHT22;29684;47.722;9.388;2023-04-25T09:58:01;7.40;99.90
8662;DHT22;29684;47.722;9.388;2023-04-25T10:00:48;7.50;99.90
8662;DHT22;29684;47.722;9.388;2023-04-25T10:03:34;7.50;99.90
8662;DHT22;29684;47.722;9.388;2023-04-25T10:06:19;7.50;99.90
8662;DHT22;29684;47.722;9.388;2023-04-25T10:09:06;7.60;99.90
8662;DHT22;29684;47.722;9.388;2023-04-25T10:11:52;7.50;99.90
8662;DHT22;29684;47.722;9.388;2023-04-25T10:14:36;7.50;99.90
8662;DHT22;29684;47.722;9.388;2023-04-25T10:17:21;7.50;99.90
8662;DHT22;29684;47.722;9.388;2023-04-25T10:20:07;7.50;99.90
8662;DHT22;29684;47.722;9.388;2023-04-25T10:22:56;7.50;99.90
8662;DHT22;29684;47.722;9.388;2023-04-25T10:25:42;7.40;99.90
8662;DHT22;29684;47.722;9.388;2023-04-25T10:28:27;7.50;99.90
8662;DHT22;29684;47.722;9.388;2023-04-25T10:31:15;7.50;99.90
8662;DHT22;29684;47.722;9.388;2023-04-25T10:34:00;7.40;99.90
8662;DHT22;29684;47.722;9.388;2023-04-25T10:36:52;7.50;99.90
8662;DHT22;29684;47.722;9.388;2023-04-25T10:39:41;7.80;99.90
8662;DHT22;29684;47.722;9.388;2023-04-25T10:42:26;9.00;99.90
8662;DHT22;29684;47.722;9.388;2023-04-25T10:45:10;7.90;99.90
8662;DHT22;29684;47.722;9.388;2023-04-25T10:47:54;7.60;99.90
8662;DHT22;29684;47.722;9.388;2023-04-25T10:50:39;7.60;99.90
8662;DHT22;29684;47.722;9.388;2023-04-25T10:53:24;7.50;99.90
8662;DHT22;29684;47.722;9.388;2023-04-25T10:56:19;7.50;99.90
8662;DHT22;29684;47.722;9.388;2023-04-25T10:59:18;7.50;99.90
8662;DHT22;29684;47.722;9.388;2023-04-25T11:02:11;7.60;99.90
8662;DHT22;29684;47.722;9.388;2023-04-25T11:04:57;7.70;99.90
8662;DHT22;29684;47.722;9.388;2023-04-25T11:07:51;7.90;99.90
8662;DHT22;29684;47.722;9.388;2023-04-25T11:10:36;8.00;99.90
8662;DHT22;29684;47.722;9.388;2023-04-25T11:13:20;8.40;99.90
8662;DHT22;29684;47.722;9.388;2023-04-25T11:16:07;8.40;99.90
8662;DHT22;29684;47.722;9.388;2023-04-25T11:18:52;8.60;99.90
8662;DHT22;29684;47.722;9.388;2023-04-25T11:21:37;8.90;99.90
8662;DHT22;29684;47.722;9.388;2023-04-25T11:24:32;9.10;99.90
8662;DHT22;29684;47.722;9.388;2023-04-25T11:27:16;9.40;99.90
8662;DHT22;29684;47.722;9.388;2023-04-25T11:30:14;9.60;99.90
8662;DHT22;29684;47.722;9.388;2023-04-25T11:32:59;10.00;99.90
8662;DHT22;29684;47.722;9.388;2023-04-25T11:35:44;10.10;99.90
8662;DHT22;29684;47.722;9.388;2023-04-25T11:38:28;10.00;99.90
8662;DHT22;29684;47.722;9.388;2023-04-25T11:41:12;9.90;99.90
8662;DHT22;29684;47.722;9.388;2023-04-25T11:43:56;9.90;99.90
8662;DHT22;29684;47.722;9.388;2023-04-25T11:46:40;10.20;99.90
8662;DHT22;29684;47.722;9.388;2023-04-25T11:49:30;10.20;99.90
8662;DHT22;29684;47.722;9.388;2023-04-25T11:52:15;10.20;99.90
8662;DHT22;29684;47.722;9.388;2023-04-25T11:54:59;9.90;99.90
8662;DHT22;29684;47.722;9.388;2023-04-25T11:57:46;9.90;99.90
8662;DHT22;29684;47.722;9.388;2023-04-25T12:00:31;10.00;99.90
8662;DHT22;29684;47.722;9.388;2023-04-25T12:03:15;9.80;99.90
8662;DHT22;29684;47.722;9.388;2023-04-25T12:06:02;9.60;99.90
8662;DHT22;29684;47.722;9.388;2023-04-25T12:09:04;9.20;99.90
8662;DHT22;29684;47.722;9.388;2023-04-25T12:11:53;9.10;99.90
8662;DHT22;29684;47.722;9.388;2023-04-25T12:14:38;8.80;99.90
8662;DHT22;29684;47.722;9.388;2023-04-25T12:17:22;8.80;99.90
8662;DHT22;29684;47.722;9.388;2023-04-25T12:20:15;8.80;99.90
8662;DHT22;29684;47.722;9.388;2023-04-25T12:22:59;8.70;99.90
8662;DHT22;29684;47.722;9.388;2023-04-25T12:25:44;8.60;99.90
8662;DHT22;29684;47.722;9.388;2023-04-25T12:28:32;8.40;99.90
8662;DHT22;29684;47.722;9.388;2023-04-25T12:31:17;8.10;99.90
8662;DHT22;29684;47.722;9.388;2023-04-25T12:34:01;8.10;99.90
8662;DHT22;29684;47.722;9.388;2023-04-25T12:36:46;8.10;99.90
8662;DHT22;29684;47.722;9.388;2023-04-25T12:39:30;8.10;99.90
8662;DHT22;29684;47.722;9.388;2023-04-25T12:42:15;8.40;99.90
8662;DHT22;29684;47.722;9.388;2023-04-25T12:44:59;8.60;99.90
8662;DHT22;29684;47.722;9.388;2023-04-25T12:47:43;8.70;99.90
8662;DHT22;29684;47.722;9.388;2023-04-25T12:50:28;8.60;99.90
8662;DHT22;29684;47.722;9.388;2023-04-25T12:53:12;8.70;99.90
8662;DHT22;29684;47.722;9.388;2023-04-25T12:55:56;8.90;99.90
8662;DHT22;29684;47.722;9.388;2023-04-25T12:58:41;9.50;99.90
8662;DHT22;29684;47.722;9.388;2023-04-25T13:01:28;9.90;99.90
8662;DHT22;29684;47.722;9.388;2023-04-25T13:04:13;10.50;99.90
8662;DHT22;29684;47.722;9.388;2023-04-25T13:06:57;11.90;99.90
8662;DHT22;29684;47.722;9.388;2023-04-25T13:09:41;13.10;99.90
8662;DHT22;29684;47.722;9.388;2023-04-25T13:12:25;13.90;99.90
8662;DHT22;29684;47.722;9.388;2023-04-25T13:15:10;14.10;99.90
8662;DHT22;29684;47.722;9.388;2023-04-25T13:17:55;14.20;99.90
8662;DHT22;29684;47.722;9.388;2023-04-25T13:20:39;14.50;99.90
8662;DHT22;29684;47.722;9.388;2023-04-25T13:23:26;14.00;99.90
8662;DHT22;29684;47.722;9.388;2023-04-25T13:26:10;14.00;99.90
8662;DHT22;29684;47.722;9.388;2023-04-25T13:28:54;14.40;99.90
8662;DHT22;29684;47.722;9.388;2023-04-25T13:31:38;14.40;99.90
8662;DHT22;29684;47.722;9.388;2023-04-25T13:34:22;13.10;99.90
8662;DHT22;29684;47.722;9.388;2023-04-25T13:37:06;12.30;99.90
8662;DHT22;29684;47.722;9.388;2023-04-25T13:39:50;11.40;99.90
8662;DHT22;29684;47.722;9.388;2023-04-25T13:42:35;11.00;99.90
8662;DHT22;29684;47.722;9.388;2023-04-25T13:45:20;10.90;99.90
8662;DHT22;29684;47.722;9.388;2023-04-25T13:48:05;10.80;99.90
8662;DHT22;29684;47.722;9.388;2023-04-25T13:50:49;11.00;99.90
8662;DHT22;29684;47.722;9.388;2023-04-25T13:53:34;11.10;99.90
8662;DHT22;29684;47.722;9.388;2023-04-25T13:56:18;11.10;99.90
8662;DHT22;29684;47.722;9.388;2023-04-25T13:59:03;11.00;99.90
8662;DHT22;29684;47.722;9.388;2023-04-25T14:01:47;10.90;99.90
8662;DHT22;29684;47.722;9.388;2023-04-25T14:04:31;10.90;99.90
8662;DHT22;29684;47.722;9.388;2023-04-25T14:07:18;11.10;99.90
8662;DHT22;29684;47.722;9.388;2023-04-25T14:10:05;11.20;99.90
8662;DHT22;29684;47.722;9.388;2023-04-25T14:12:50;12.00;99.90
8662;DHT22;29684;47.722;9.388;2023-04-25T14:15:35;12.10;99.90
8662;DHT22;29684;47.722;9.388;2023-04-25T14:18:19;11.70;99.90
8662;DHT22;29684;47.722;9.388;2023-04-25T14:21:03;11.40;99.90
8662;DHT22;29684;47.722;9.388;2023-04-25T14:23:47;11.10;99.90
8662;DHT22;29684;47.722;9.388;2023-04-25T14:26:33;11.40;99.90
8662;DHT22;29684;47.722;9.388;2023-04-25T14:29:18;11.90;99.90
8662;DHT22;29684;47.722;9.388;2023-04-25T14:32:02;12.30;99.90
8662;DHT22;29684;47.722;9.388;2023-04-25T14:34:47;13.50;99.90
8662;DHT22;29684;47.722;9.388;2023-04-25T14:37:32;13.20;99.90
8662;DHT22;29684;47.722;9.388;2023-04-25T14:40:17;12.70;99.90
8662;DHT22;29684;47.722;9.388;2023-04-25T14:43:01;12.30;99.90
8662;DHT22;29684;47.722;9.388;2023-04-25T14:45:45;11.80;99.90
8662;DHT22;29684;47.722;9.388;2023-04-25T14:48:29;11.40;99.90
8662;DHT22;29684;47.722;9.388;2023-04-25T14:51:14;11.20;99.90
8662;DHT22;29684;47.722;9.388;2023-04-25T14:53:58;11.00;99.90
8662;DHT22;29684;47.722;9.388;2023-04-25T14:56:42;10.50;99.90
8662;DHT22;29684;47.722;9.388;2023-04-25T14:59:26;9.80;99.90
8662;DHT22;29684;47.722;9.388;2023-04-25T15:02:11;8.50;99.90
8662;DHT22;29684;47.722;9.388;2023-04-25T15:04:56;8.10;99.90
8662;DHT22;29684;47.722;9.388;2023-04-25T15:07:40;8.00;99.90
8662;DHT22;29684;47.722;9.388;2023-04-25T15:10:24;8.00;99.90
8662;DHT22;29684;47.722;9.388;2023-04-25T15:13:09;7.90;99.90
8662;DHT22;29684;47.722;9.388;2023-04-25T15:15:54;8.00;99.90
8662;DHT22;29684;47.722;9.388;2023-04-25T15:18:39;8.10;99.90
8662;DHT22;29684;47.722;9.388;2023-04-25T15:21:24;8.20;99.90
8662;DHT22;29684;47.722;9.388;2023-04-25T15:24:10;8.20;99.90
8662;DHT22;29684;47.722;9.388;2023-04-25T15:26:54;8.10;99.90
8662;DHT22;29684;47.722;9.388;2023-04-25T15:29:39;8.30;99.90
8662;DHT22;29684;47.722;9.388;2023-04-25T15:32:24;8.40;99.90
8662;DHT22;29684;47.722;9.388;2023-04-25T15:35:09;8.60;99.90
8662;DHT22;29684;47.722;9.388;2023-04-25T15:37:59;8.90;99.90
8662;DHT22;29684;47.722;9.388;2023-04-25T15:40:44;9.30;99.90
8662;DHT22;29684;47.722;9.388;2023-04-25T15:43:28;10.10;99.90
8662;DHT22;29684;47.722;9.388;2023-04-25T15:46:13;11.10;99.90
8662;DHT22;29684;47.722;9.388;2023-04-25T15:48:58;11.60;99.90
8662;DHT22;29684;47.722;9.388;2023-04-25T15:51:42;12.60;99.90
8662;DHT22;29684;47.722;9.388;2023-04-25T15:54:26;14.60;99.90
8662;DHT22;29684;47.722;9.388;2023-04-25T15:57:11;16.20;99.90
8662;DHT22;29684;47.722;9.388;2023-04-25T15:59:55;17.80;99.90
8662;DHT22;29684;47.722;9.388;2023-04-25T16:02:42;16.10;99.90
8662;DHT22;29684;47.722;9.388;2023-04-25T16:05:26;15.40;99.90
8662;DHT22;29684;47.722;9.388;2023-04-25T16:08:11;16.30;99.90
8662;DHT22;29684;47.722;9.388;2023-04-25T16:10:56;17.50;99.90
8662;DHT22;29684;47.722;9.388;2023-04-25T16:13:40;16.60;99.90
8662;DHT22;29684;47.722;9.388;2023-04-25T16:16:24;13.50;99.90
8662;DHT22;29684;47.722;9.388;2023-04-25T16:19:09;12.30;99.90
8662;DHT22;29684;47.722;9.388;2023-04-25T16:21:53;11.50;99.90
8662;DHT22;29684;47.722;9.388;2023-04-25T16:24:38;11.00;99.90
8662;DHT22;29684;47.722;9.388;2023-04-25T16:27:22;10.70;99.90
8662;DHT22;29684;47.722;9.388;2023-04-25T16:30:08;10.60;99.90
8662;DHT22;29684;47.722;9.388;2023-04-25T16:32:52;10.40;99.90
8662;DHT22;29684;47.722;9.388;2023-04-25T16:35:37;10.00;99.90
8662;DHT22;29684;47.722;9.388;2023-04-25T16:38:21;9.50;99.90
8662;DHT22;29684;47.722;9.388;2023-04-25T16:41:06;9.00;99.90
8662;DHT22;29684;47.722;9.388;2023-04-25T16:43:50;8.70;99.90
8662;DHT22;29684;47.722;9.388;2023-04-25T16:46:34;8.70;99.90
8662;DHT22;29684;47.722;9.388;2023-04-25T16:49:18;8.70;99.90
8662;DHT22;29684;47.722;9.388;2023-04-25T16:52:02;8.40;99.90
8662;DHT22;29684;47.722;9.388;2023-04-25T16:54:46;8.40;99.90
8662;DHT22;29684;47.722;9.388;2023-04-25T16:57:30;8.30;99.90
8662;DHT22;29684;47.722;9.388;2023-04-25T17:00:15;8.30;99.90
8662;DHT22;29684;47.722;9.388;2023-04-25T17:03:02;8.40;99.90
8662;DHT22;29684;47.722;9.388;2023-04-25T17:05:49;8.20;99.90
8662;DHT22;29684;47.722;9.388;2023-04-25T17:08:34;8.00;99.90
8662;DHT22;29684;47.722;9.388;2023-04-25T17:11:18;8.00;99.90
8662;DHT22;29684;47.722;9.388;2023-04-25T17:14:03;8.00;99.90
8662;DHT22;29684;47.722;9.388;2023-04-25T17:16:47;8.00;99.90
8662;DHT22;29684;47.722;9.388;2023-04-25T17:19:32;7.90;99.90
8662;DHT22;29684;47.722;9.388;2023-04-25T17:22:16;7.90;99.90
8662;DHT22;29684;47.722;9.388;2023-04-25T17:25:00;7.90;99.90
8662;DHT22;29684;47.722;9.388;2023-04-25T17:27:45;7.90;99.90
8662;DHT22;29684;47.722;9.388;2023-04-25T17:30:29;8.00;99.90
8662;DHT22;29684;47.722;9.388;2023-04-25T17:33:14;7.90;99.90
8662;DHT22;29684;47.722;9.388;2023-04-25T17:35:58;7.90;99.90
8662;DHT22;29684;47.722;9.388;2023-04-25T17:38:42;7.90;99.90
8662;DHT22;29684;47.722;9.388;2023-04-25T17:41:26;7.90;99.90
8662;DHT22;29684;47.722;9.388;2023-04-25T17:44:10;7.90;99.90
8662;DHT22;29684;47.722;9.388;2023-04-25T17:46:55;7.90;99.90
8662;DHT22;29684;47.722;9.388;2023-04-25T17:49:40;7.90;99.90
8662;DHT22;29684;47.722;9.388;2023-04-25T17:52:24;7.80;99.90